Time;durP1;ratioP1;P1;durP2;ratioP2;P2;SDS_P1;SDS_P2;PMS_P1;PMS_P2;Temp;Humidity;BMP_temperature;BMP_pressure;BME280_temperature;BME280_humidity;BME280_pressure;Samples;Min_cycle;Max_cycle;Signal;HPM_P1;HPM_P2
2022/10/29 00:01:01;;;;;;;23.40;10.63;;;;;;;13.51;100.00;102110.28;5205800;28;20040;-75
2022/10/29 00:03:31;;;;;;;27.17;10.57;;;;;;;13.51;100.00;102112.97;5206199;28;20134;-75
2022/10/29 00:06:09;;;;;;;21.95;11.57;;;;;;;13.50;100.00;102107.72;5206311;28;20056;-75
2022/10/29 00:08:40;;;;;;;27.58;11.55;;;;;;;13.48;100.00;102097.94;5205546;28;20544;-75
2022/10/29 00:11:20;;;;;;;24.92;9.85;;;;;;;13.46;100.00;102096.44;5206378;28;20030;-75
2022/10/29 00:13:57;;;;;;;39.72;12.38;;;;;;;13.42;100.00;102098.56;5206110;28;20056;-75
2022/10/29 00:16:34;;;;;;;30.27;12.25;;;;;;;13.38;100.00;102096.34;5206121;28;20026;-74
2022/10/29 00:19:05;;;;;;;23.50;10.07;;;;;;;13.34;100.00;102103.03;5205754;28;20023;-74
2022/10/29 00:21:36;;;;;;;16.98;10.45;;;;;;;13.29;100.00;102099.94;5205931;28;20100;-75
2022/10/29 00:24:09;;;;;;;21.30;9.43;;;;;;;13.25;100.00;102099.41;5205384;28;20021;-74
2022/10/29 00:26:39;;;;;;;25.13;10.45;;;;;;;13.21;100.00;102098.88;5205355;28;20077;-74
2022/10/29 00:29:10;;;;;;;25.75;11.27;;;;;;;13.22;100.00;102094.34;5205766;28;20025;-75
2022/10/29 00:31:40;;;;;;;22.05;9.77;;;;;;;13.24;100.00;102094.19;5198699;28;20025;-75
2022/10/29 00:34:10;;;;;;;21.38;11.25;;;;;;;13.20;100.00;102098.97;5196051;28;20064;-75
2022/10/29 00:36:41;;;;;;;17.02;9.45;;;;;;;13.16;100.00;102095.78;5204849;28;20105;-74
2022/10/29 00:39:14;;;;;;;22.30;9.82;;;;;;;13.15;100.00;102096.78;5205385;28;20048;-73
2022/10/29 00:41:44;;;;;;;18.05;9.32;;;;;;;13.14;100.00;102096.91;5205276;28;20036;-74
2022/10/29 00:44:19;;;;;;;17.60;8.60;;;;;;;13.13;100.00;102106.00;5205588;28;20029;-75
2022/10/29 00:47:10;;;;;;;16.90;8.25;;;;;;;13.13;100.00;102104.16;5204807;28;20068;-74
2022/10/29 00:49:42;;;;;;;15.32;8.07;;;;;;;13.13;100.00;102095.22;5203994;28;20225;-74
2022/10/29 00:52:14;;;;;;;21.20;9.48;;;;;;;13.16;100.00;102094.94;5205285;28;20027;-74
2022/10/29 00:54:47;;;;;;;17.15;8.43;;;;;;;13.19;100.00;102092.75;5205767;28;20032;-75
2022/10/29 00:57:27;;;;;;;17.15;8.65;;;;;;;13.19;100.00;102084.66;5204549;28;20030;-74
2022/10/29 00:59:57;;;;;;;19.83;9.23;;;;;;;13.21;100.00;102081.84;5205270;28;20029;-75
2022/10/29 01:02:30;;;;;;;15.50;7.55;;;;;;;13.20;100.00;102088.22;5205826;28;20029;-76
2022/10/29 01:05:06;;;;;;;15.75;7.68;;;;;;;13.19;100.00;102092.75;5205801;28;20378;-75
2022/10/29 01:07:37;;;;;;;14.80;8.35;;;;;;;13.18;100.00;102082.13;5204996;28;20086;-74
2022/10/29 01:10:08;;;;;;;23.77;10.88;;;;;;;13.18;100.00;102082.13;5205565;28;20431;-75
2022/10/29 01:13:00;;;;;;;26.10;10.93;;;;;;;13.17;100.00;102073.22;5205346;28;20025;-75
2022/10/29 01:15:48;;;;;;;30.95;13.07;;;;;;;13.16;100.00;102078.75;5205296;28;20507;-75
2022/10/29 01:18:24;;;;;;;30.73;11.77;;;;;;;13.17;100.00;102075.06;5204472;28;20108;-75
2022/10/29 01:21:08;;;;;;;25.58;11.20;;;;;;;13.19;100.00;102075.75;5192670;28;20017;-74
2022/10/29 01:23:59;;;;;;;25.83;12.27;;;;;;;13.15;100.00;102067.13;5204133;28;20026;-75
2022/10/29 01:27:06;;;;;;;23.42;11.65;;;;;;;13.15;100.00;102075.22;5204682;28;20034;-75
2022/10/29 01:30:02;;;;;;;20.98;10.13;;;;;;;13.13;100.00;102071.81;5205291;28;20033;-75
2022/10/29 01:32:42;;;;;;;26.17;9.73;;;;;;;13.09;100.00;102058.81;5188927;28;20481;-74
2022/10/29 01:35:12;;;;;;;26.58;10.60;;;;;;;13.08;100.00;102057.09;5202982;28;20119;-75
2022/10/29 01:38:20;;;;;;;28.00;11.45;;;;;;;13.06;100.00;102054.59;5204678;28;20113;-75
2022/10/29 01:41:18;;;;;;;23.58;11.40;;;;;;;13.03;100.00;102046.78;5196884;28;20032;-75
2022/10/29 01:44:09;;;;;;;30.08;12.93;;;;;;;13.02;100.00;102047.78;5204887;28;20496;-74
2022/10/29 01:46:46;;;;;;;24.48;11.07;;;;;;;13.00;100.00;102047.09;5204511;28;20625;-74
2022/10/29 01:49:24;;;;;;;24.95;10.85;;;;;;;12.96;100.00;102048.41;5204519;28;20509;-74
2022/10/29 01:51:57;;;;;;;28.67;11.23;;;;;;;12.91;100.00;102043.47;5204149;28;20481;-74
2022/10/29 01:54:29;;;;;;;23.50;11.93;;;;;;;12.89;100.00;102044.63;5204547;28;20445;-74
2022/10/29 01:57:00;;;;;;;36.90;13.30;;;;;;;12.91;100.00;102050.72;5203379;28;20064;-73
2022/10/29 01:59:31;;;;;;;21.95;10.57;;;;;;;12.92;100.00;102037.09;5204448;28;20048;-74
2022/10/29 02:02:32;;;;;;;19.98;9.65;;;;;;;12.94;100.00;102037.78;5203915;28;20043;-73
2022/10/29 02:05:18;;;;;;;17.83;8.13;;;;;;;12.98;100.00;102037.47;5204510;28;20025;-74
2022/10/29 02:08:08;;;;;;;15.45;7.75;;;;;;;12.98;100.00;102038.31;5203906;28;20033;-74
2022/10/29 02:10:39;;;;;;;22.23;8.73;;;;;;;13.01;100.00;102037.19;5203979;28;20032;-74
2022/10/29 02:13:21;;;;;;;21.23;9.75;;;;;;;13.01;100.00;102035.34;5204285;28;20021;-74
2022/10/29 02:16:08;;;;;;;28.08;11.65;;;;;;;13.01;100.00;102027.25;5204331;28;20108;-75
2022/10/29 02:18:44;;;;;;;21.63;8.45;;;;;;;13.01;100.00;102015.63;5203283;28;20072;-74
2022/10/29 02:21:16;;;;;;;16.40;9.70;;;;;;;12.99;100.00;102017.63;5204085;28;20017;-74
2022/10/29 02:23:47;;;;;;;22.40;10.10;;;;;;;12.95;100.00;102014.38;5204626;28;20026;-75
2022/10/29 02:26:18;;;;;;;23.45;10.50;;;;;;;12.90;100.00;102014.88;5203904;28;20377;-75
2022/10/29 02:28:48;;;;;;;16.13;10.32;;;;;;;12.85;100.00;102013.59;5203294;28;20032;-76
2022/10/29 02:31:19;;;;;;;20.33;9.93;;;;;;;12.80;100.00;101997.94;5200260;28;20032;-74
2022/10/29 02:33:49;;;;;;;22.98;9.70;;;;;;;12.74;100.00;101998.50;5204139;28;20493;-75
2022/10/29 02:36:20;;;;;;;17.15;8.68;;;;;;;12.68;100.00;101999.97;5202855;28;20033;-73
2022/10/29 02:38:50;;;;;;;28.88;10.85;;;;;;;12.63;100.00;101998.75;5203481;28;20370;-73
2022/10/29 02:41:21;;;;;;;29.15;8.40;;;;;;;12.57;100.00;101991.28;5203555;28;20496;-73
2022/10/29 02:43:51;;;;;;;13.80;6.68;;;;;;;12.53;100.00;101995.25;5203362;28;20033;-73
2022/10/29 02:46:22;;;;;;;9.57;6.07;;;;;;;12.49;100.00;102000.09;5192731;28;20079;-73
2022/10/29 02:48:53;;;;;;;10.07;5.95;;;;;;;12.53;100.00;102004.19;5203155;28;20033;-73
2022/10/29 02:51:23;;;;;;;13.38;6.18;;;;;;;12.57;100.00;101997.50;5203471;28;20036;-73
2022/10/29 02:53:54;;;;;;;21.83;10.73;;;;;;;12.68;100.00;101999.97;5204171;28;20108;-72
2022/10/29 02:56:24;;;;;;;23.42;9.68;;;;;;;12.79;100.00;102000.75;5203348;28;20497;-73
2022/10/29 02:58:55;;;;;;;20.95;9.15;;;;;;;12.84;100.00;101998.44;5203289;28;20102;-72
2022/10/29 03:01:25;;;;;;;15.32;8.23;;;;;;;12.89;100.00;101986.22;5203712;28;20022;-72
2022/10/29 03:03:57;;;;;;;20.98;9.13;;;;;;;12.96;100.00;101973.00;5204486;28;20068;-73
2022/10/29 03:06:27;;;;;;;15.65;8.18;;;;;;;12.98;100.00;101957.50;5204803;28;20025;-74
2022/10/29 03:08:58;;;;;;;22.30;10.18;;;;;;;13.02;100.00;101941.91;5205044;28;20028;-74
2022/10/29 03:11:28;;;;;;;26.60;10.18;;;;;;;13.04;100.00;101939.88;5204712;28;20026;-74
2022/10/29 03:13:59;;;;;;;28.73;10.77;;;;;;;13.06;100.00;101941.44;5203283;28;20026;-76
2022/10/29 03:16:29;;;;;;;23.45;10.43;;;;;;;13.10;100.00;101950.91;5203099;28;20553;-75
2022/10/29 03:19:00;;;;;;;25.77;11.45;;;;;;;13.09;100.00;101946.50;5202375;28;20416;-75
2022/10/29 03:21:30;;;;;;;24.50;9.85;;;;;;;13.12;100.00;101953.44;5202548;28;20225;-75
2022/10/29 03:24:01;;;;;;;33.25;11.88;;;;;;;13.13;100.00;101942.50;5202953;28;20033;-76
2022/10/29 03:26:32;;;;;;;29.80;11.48;;;;;;;13.20;100.00;101935.50;5202428;28;20025;-76
2022/10/29 03:29:02;;;;;;;31.13;12.25;;;;;;;13.26;100.00;101928.66;5202473;28;20520;-76
2022/10/29 03:31:33;;;;;;;27.80;11.75;;;;;;;13.29;100.00;101916.69;5199045;28;20382;-75
2022/10/29 03:34:03;;;;;;;26.00;11.10;;;;;;;13.32;100.00;101911.84;5202970;28;20465;-76
2022/10/29 03:36:34;;;;;;;30.42;11.38;;;;;;;13.36;100.00;101912.38;5202391;28;20026;-75
2022/10/29 03:39:04;;;;;;;24.13;11.00;;;;;;;13.39;100.00;101902.09;5202542;28;20073;-75
2022/10/29 03:41:34;;;;;;;21.08;10.88;;;;;;;13.41;100.00;101904.66;5202430;28;20384;-74
2022/10/29 03:44:05;;;;;;;30.15;11.82;;;;;;;13.42;100.00;101900.97;5202581;28;20071;-76
2022/10/29 03:46:35;;;;;;;29.27;11.98;;;;;;;13.42;100.00;101899.09;5202260;28;20034;-76
2022/10/29 03:49:06;;;;;;;30.92;12.07;;;;;;;13.43;100.00;101903.50;5202223;28;20026;-75
2022/10/29 03:51:36;;;;;;;37.40;12.13;;;;;;;13.45;100.00;101898.81;5202744;28;20044;-74
2022/10/29 03:54:07;;;;;;;37.25;12.30;;;;;;;13.47;100.00;101890.53;5201393;28;20033;-75
2022/10/29 03:56:38;;;;;;;26.60;10.98;;;;;;;13.48;100.00;101903.84;5201907;28;20493;-74
2022/10/29 03:59:09;;;;;;;24.33;10.85;;;;;;;13.49;100.00;101907.38;5202301;28;20033;-74
2022/10/29 04:01:39;;;;;;;26.00;11.48;;;;;;;13.44;100.00;101891.69;5202767;28;20035;-74
2022/10/29 04:04:10;;;;;;;26.92;10.38;;;;;;;13.43;100.00;101884.63;5202458;28;20080;-74
2022/10/29 04:06:40;;;;;;;25.52;10.50;;;;;;;13.40;100.00;101884.97;5202390;28;20057;-74
2022/10/29 04:09:11;;;;;;;31.92;11.65;;;;;;;13.35;100.00;101883.72;5202152;28;20028;-75
2022/10/29 04:11:41;;;;;;;24.25;10.68;;;;;;;13.31;100.00;101877.81;5202777;28;20415;-75
2022/10/29 04:14:12;;;;;;;31.13;11.07;;;;;;;13.32;100.00;101875.97;5202331;28;20021;-74
2022/10/29 04:16:42;;;;;;;41.10;13.73;;;;;;;13.36;100.00;101874.66;5204627;28;20057;-75
2022/10/29 04:19:12;;;;;;;31.23;12.88;;;;;;;13.41;100.00;101877.72;5205861;28;20049;-75
2022/10/29 04:21:43;;;;;;;36.85;13.02;;;;;;;13.43;100.00;101876.53;5205398;28;20033;-74
2022/10/29 04:24:13;;;;;;;31.23;12.32;;;;;;;13.46;100.00;101872.69;5206101;28;20045;-74
2022/10/29 04:26:44;;;;;;;29.05;13.32;;;;;;;13.50;100.00;101879.41;5205387;28;20094;-74
2022/10/29 04:29:15;;;;;;;40.20;14.00;;;;;;;13.51;100.00;101875.75;5206137;28;20387;-75
2022/10/29 04:31:45;;;;;;;33.47;14.25;;;;;;;13.50;100.00;101874.03;5202309;28;20025;-75
2022/10/29 04:34:16;;;;;;;31.65;14.13;;;;;;;13.51;100.00;101883.84;5205702;28;20352;-74
2022/10/29 04:36:46;;;;;;;33.55;12.43;;;;;;;13.49;100.00;101869.66;5205623;28;20025;-74
2022/10/29 04:39:17;;;;;;;38.67;13.23;;;;;;;13.51;100.00;101861.44;5205573;28;20017;-74
2022/10/29 04:41:48;;;;;;;39.60;14.90;;;;;;;13.52;100.00;101865.81;5205693;28;20445;-74
2022/10/29 04:44:19;;;;;;;32.42;13.48;;;;;;;13.51;100.00;101862.28;5205864;28;20428;-74
2022/10/29 04:46:49;;;;;;;42.75;14.18;;;;;;;13.51;100.00;101862.28;5192895;28;20026;-73
2022/10/29 04:49:19;;;;;;;30.60;14.10;;;;;;;13.51;100.00;101864.13;5205318;28;20021;-74
2022/10/29 04:51:50;;;;;;;30.85;13.05;;;;;;;13.51;100.00;101870.34;5205625;28;20510;-76
2022/10/29 04:54:20;;;;;;;35.42;14.77;;;;;;;13.56;100.00;101864.47;5205283;28;20025;-75
2022/10/29 04:56:51;;;;;;;38.28;14.65;;;;;;;13.60;100.00;101868.53;5205189;28;20033;-76
2022/10/29 04:59:21;;;;;;;35.63;14.02;;;;;;;13.62;100.00;101866.53;5205223;28;20035;-75
2022/10/29 05:01:52;;;;;;;32.53;13.55;;;;;;;13.65;100.00;101872.41;5205395;28;20031;-75
2022/10/29 05:04:22;;;;;;;30.33;13.52;;;;;;;13.68;100.00;101865.88;5205425;28;20060;-75
2022/10/29 05:06:53;;;;;;;34.08;14.15;;;;;;;13.70;100.00;101847.66;5205150;28;20022;-75
2022/10/29 05:09:23;;;;;;;36.85;12.95;;;;;;;13.72;100.00;101840.28;5204880;28;20473;-75
2022/10/29 05:11:54;;;;;;;32.47;13.65;;;;;;;13.71;100.00;101846.69;5205343;28;20025;-75
2022/10/29 05:14:24;;;;;;;32.50;13.73;;;;;;;13.72;100.00;101835.72;5205194;28;20021;-75
2022/10/29 05:16:54;;;;;;;31.85;12.50;;;;;;;13.73;100.00;101828.47;5203375;28;20242;-75
2022/10/29 05:19:25;;;;;;;39.22;13.35;;;;;;;13.77;100.00;101837.09;5205361;28;20068;-75
2022/10/29 05:21:55;;;;;;;42.00;15.52;;;;;;;13.80;100.00;101840.28;5205254;28;20029;-75
2022/10/29 05:24:26;;;;;;;38.95;14.43;;;;;;;13.81;100.00;101839.31;5204645;28;20022;-74
2022/10/29 05:26:56;;;;;;;33.00;14.07;;;;;;;13.80;100.00;101837.59;5200770;28;20032;-75
2022/10/29 05:29:27;;;;;;;42.47;15.35;;;;;;;13.80;100.00;101824.09;5205175;28;20064;-75
2022/10/29 05:31:57;;;;;;;36.97;14.27;;;;;;;13.78;100.00;101831.53;5201837;28;20071;-75
2022/10/29 05:34:28;;;;;;;37.05;13.57;;;;;;;13.74;100.00;101830.16;5204457;28;20023;-75
2022/10/29 05:36:58;;;;;;;31.95;14.18;;;;;;;13.70;100.00;101835.06;5204232;28;20025;-75
2022/10/29 05:39:29;;;;;;;31.75;13.55;;;;;;;13.64;100.00;101833.00;5189316;28;20029;-76
2022/10/29 05:41:59;;;;;;;44.30;15.10;;;;;;;13.59;100.00;101837.19;5196024;28;20017;-76
2022/10/29 05:44:29;;;;;;;30.92;13.88;;;;;;;13.58;100.00;101841.72;5203365;28;20095;-75
2022/10/29 05:47:00;;;;;;;26.60;14.18;;;;;;;13.52;100.00;101847.78;5202195;28;20028;-76
2022/10/29 05:49:30;;;;;;;35.95;13.13;;;;;;;13.45;100.00;101841.31;5203066;28;20025;-76
2022/10/29 05:52:01;;;;;;;30.08;13.02;;;;;;;13.39;100.00;101845.50;5203311;28;20041;-76
2022/10/29 05:54:31;;;;;;;34.38;13.80;;;;;;;13.32;100.00;101844.47;5203440;28;20025;-76
2022/10/29 05:57:02;;;;;;;33.13;14.85;;;;;;;13.25;100.00;101847.94;5202681;28;20027;-76
2022/10/29 05:59:32;;;;;;;32.30;14.40;;;;;;;13.19;100.00;101846.72;5203065;28;20044;-75
2022/10/29 06:02:03;;;;;;;37.42;15.80;;;;;;;13.14;100.00;101833.72;5202797;28;20033;-75
2022/10/29 06:04:33;;;;;;;39.40;14.63;;;;;;;13.12;100.00;101833.03;5205162;28;20033;-75
2022/10/29 06:07:04;;;;;;;33.03;14.18;;;;;;;13.11;100.00;101830.50;5202467;28;20029;-75
2022/10/29 06:09:35;;;;;;;32.00;15.23;;;;;;;13.09;100.00;101844.13;5202700;28;20048;-76
2022/10/29 06:12:06;;;;;;;28.55;14.77;;;;;;;13.09;100.00;101844.13;5202611;28;20377;-75
2022/10/29 06:14:36;;;;;;;38.55;14.02;;;;;;;13.09;100.00;101840.59;5202664;28;20127;-74
2022/10/29 06:17:07;;;;;;;29.27;13.00;;;;;;;13.07;100.00;101842.59;5201876;28;20388;-74
2022/10/29 06:19:37;;;;;;;36.05;14.32;;;;;;;13.04;100.00;101837.53;5202606;28;20055;-74
2022/10/29 06:22:08;;;;;;;33.42;13.68;;;;;;;12.98;100.00;101835.47;5201967;28;20100;-73
2022/10/29 06:24:38;;;;;;;29.50;13.52;;;;;;;12.91;100.00;101840.66;5201903;28;20032;-74
2022/10/29 06:27:09;;;;;;;32.97;12.63;;;;;;;12.84;100.00;101842.25;5198757;28;20025;-74
2022/10/29 06:29:39;;;;;;;31.55;14.52;;;;;;;12.77;100.00;101844.75;5201798;28;20094;-74
2022/10/29 06:32:09;;;;;;;34.05;15.68;;;;;;;12.75;100.00;101840.50;5197674;28;20389;-74
2022/10/29 06:34:40;;;;;;;31.02;12.90;;;;;;;12.71;100.00;101842.69;5202218;28;20533;-73
2022/10/29 06:37:10;;;;;;;24.67;11.85;;;;;;;12.68;100.00;101838.44;5201822;28;20037;-74
2022/10/29 06:39:41;;;;;;;29.85;15.63;;;;;;;12.66;100.00;101836.91;5201534;28;20074;-74
2022/10/29 06:42:11;;;;;;;34.00;13.93;;;;;;;12.63;100.00;101829.13;5202079;28;20014;-74
2022/10/29 06:44:42;;;;;;;39.88;13.40;;;;;;;12.61;100.00;101837.38;5202172;28;20032;-74
2022/10/29 06:47:12;;;;;;;30.50;14.20;;;;;;;12.61;100.00;101831.16;5200437;28;20405;-73
2022/10/29 06:49:43;;;;;;;31.60;14.75;;;;;;;12.60;100.00;101821.38;5199921;28;20048;-74
2022/10/29 06:52:13;;;;;;;35.85;14.60;;;;;;;12.62;100.00;101825.59;5201812;28;20026;-74
2022/10/29 06:54:44;;;;;;;26.85;13.02;;;;;;;12.67;100.00;101828.69;5202093;28;20028;-74
2022/10/29 06:57:14;;;;;;;33.95;15.27;;;;;;;12.73;100.00;101834.44;5201641;28;20036;-74
2022/10/29 06:59:45;;;;;;;37.42;15.95;;;;;;;12.81;100.00;101842.59;5200568;28;20021;-74
2022/10/29 07:02:18;;;;;;;42.90;16.77;;;;;;;12.91;100.00;101844.19;5201464;28;20033;-74
2022/10/29 07:04:48;;;;;;;37.90;16.00;;;;;;;13.07;100.00;101821.06;5202617;28;20388;-74
2022/10/29 07:07:19;;;;;;;33.90;15.52;;;;;;;13.14;100.00;101819.41;5201853;28;20032;-74
2022/10/29 07:09:49;;;;;;;30.90;15.25;;;;;;;13.19;100.00;101817.91;5202701;28;20040;-74
2022/10/29 07:12:20;;;;;;;33.03;15.35;;;;;;;13.26;100.00;101823.56;5202202;28;20021;-74
2022/10/29 07:14:50;;;;;;;43.42;17.48;;;;;;;13.38;100.00;101824.97;5200695;28;20052;-74
2022/10/29 07:17:20;;;;;;;44.60;16.63;;;;;;;13.51;100.00;101824.53;5201453;28;20029;-74
2022/10/29 07:19:51;;;;;;;33.72;15.98;;;;;;;13.62;100.00;101815.28;5201403;28;20036;-73
2022/10/29 07:22:21;;;;;;;39.10;16.08;;;;;;;13.72;100.00;101811.47;5201297;28;20045;-74
2022/10/29 07:24:52;;;;;;;43.28;15.73;;;;;;;13.80;100.00;101796.28;5201192;28;20156;-74
2022/10/29 07:27:22;;;;;;;34.92;14.98;;;;;;;13.84;100.00;101800.34;5201070;28;20127;-74
2022/10/29 07:29:53;;;;;;;34.25;15.35;;;;;;;13.88;100.00;101812.50;5201403;28;20029;-74
2022/10/29 07:32:23;;;;;;;35.53;15.63;;;;;;;13.92;100.00;101805.78;5198264;28;20032;-74
2022/10/29 07:34:54;;;;;;;43.53;15.90;;;;;;;13.95;100.00;101816.22;5201388;28;20029;-74
2022/10/29 07:37:24;;;;;;;33.85;14.75;;;;;;;14.00;100.00;101822.81;5201178;28;20476;-74
2022/10/29 07:39:55;;;;;;;33.35;16.02;;;;;;;14.10;100.00;101821.81;5199901;28;20026;-74
2022/10/29 07:42:25;;;;;;;38.05;14.52;;;;;;;14.18;100.00;101824.56;5201304;28;20519;-74
2022/10/29 07:44:56;;;;;;;34.20;14.73;;;;;;;14.26;100.00;101813.78;5201537;28;20041;-74
2022/10/29 07:47:26;;;;;;;36.33;15.02;;;;;;;14.38;100.00;101817.00;5200781;28;20087;-74
2022/10/29 07:49:57;;;;;;;36.58;14.07;;;;;;;14.47;100.00;101816.00;5200506;28;20473;-74
2022/10/29 07:52:27;;;;;;;37.50;15.02;;;;;;;14.57;100.00;101815.84;5203603;28;20117;-74
2022/10/29 07:55:00;;;;;;;31.10;13.20;;;;;;;14.65;100.00;101810.44;5205710;28;20309;-74
2022/10/29 07:57:30;;;;;;;30.75;14.23;;;;;;;14.77;100.00;101809.94;5205083;28;20104;-74
2022/10/29 08:00:01;;;;;;;24.83;12.60;;;;;;;14.88;100.00;101814.13;5205341;28;20164;-74
2022/10/29 08:02:31;;;;;;;25.45;12.50;;;;;;;14.96;100.00;101808.72;5204265;28;20104;-74
2022/10/29 08:05:02;;;;;;;28.52;12.07;;;;;;;15.06;100.00;101807.66;5204987;28;20017;-74
2022/10/29 08:07:33;;;;;;;31.42;13.27;;;;;;;15.17;100.00;101807.34;5203391;28;20029;-74
2022/10/29 08:10:03;;;;;;;26.38;11.88;;;;;;;15.26;100.00;101807.13;5204886;28;20031;-74
2022/10/29 08:12:34;;;;;;;28.38;11.60;;;;;;;15.35;100.00;101810.63;5204832;28;20022;-74
2022/10/29 08:15:05;;;;;;;25.77;11.32;;;;;;;15.41;100.00;101815.38;5204705;28;20033;-74
2022/10/29 08:17:35;;;;;;;33.50;11.93;;;;;;;15.48;100.00;101807.38;5204375;28;20029;-74
2022/10/29 08:20:06;;;;;;;34.25;12.50;;;;;;;15.54;100.00;101793.16;5205240;28;20022;-74
2022/10/29 08:22:37;;;;;;;28.02;11.68;;;;;;;15.60;100.00;101803.28;5204633;28;20473;-74
2022/10/29 08:25:08;;;;;;;31.35;12.27;;;;;;;15.66;100.00;101801.75;5204597;28;20158;-74
2022/10/29 08:27:39;;;;;;;25.08;10.80;;;;;;;15.73;100.00;101797.34;5203915;28;20075;-74
2022/10/29 08:30:12;;;;;;;22.25;10.55;;;;;;;15.84;100.00;101805.03;5204197;28;20059;-74
2022/10/29 08:32:46;;;;;;;24.52;10.48;;;;;;;15.93;100.00;101803.16;5189365;28;20108;-74
2022/10/29 08:35:16;;;;;;;29.70;11.02;;;;;;;16.11;100.00;101806.38;5204310;28;20075;-74
2022/10/29 08:37:46;;;;;;;28.10;10.00;;;;;;;16.53;100.00;101810.50;5203726;28;20033;-74
2022/10/29 08:40:52;;;;;;;25.30;9.93;;;;;;;17.04;100.00;101806.16;5204401;28;20028;-74
2022/10/29 08:44:01;;;;;;;31.40;9.38;;;;;;;17.34;100.00;101801.56;5179919;28;20037;-74
2022/10/29 08:46:44;;;;;;;20.20;8.93;;;;;;;17.86;100.00;101795.16;5204409;28;20029;-74
2022/10/29 08:49:28;;;;;;;26.27;8.68;;;;;;;18.36;100.00;101784.41;5203875;28;20037;-74
2022/10/29 08:52:08;;;;;;;25.38;9.20;;;;;;;18.82;100.00;101787.53;5202837;28;20104;-74
2022/10/29 08:54:40;;;;;;;25.02;8.43;;;;;;;19.12;100.00;101788.13;5204092;28;20512;-74
2022/10/29 08:57:16;;;;;;;24.10;7.88;;;;;;;19.31;100.00;101778.41;5203911;28;20033;-74
2022/10/29 09:00:14;;;;;;;17.17;7.28;;;;;;;19.44;100.00;101776.81;5202873;28;20030;-74
2022/10/29 09:02:45;;;;;;;17.73;6.70;;;;;;;19.34;100.00;101774.47;5199910;28;20034;-74
2022/10/29 09:05:19;;;;;;;23.52;7.20;;;;;;;19.10;100.00;101779.34;5203963;28;20464;-74
2022/10/29 09:08:03;;;;;;;17.30;7.50;;;;;;;18.86;100.00;101777.09;5203737;28;20025;-74
2022/10/29 09:10:37;;;;;;;24.08;8.07;;;;;;;18.61;100.00;101776.66;5203948;28;20052;-74
2022/10/29 09:13:25;;;;;;;17.33;7.28;;;;;;;18.58;100.00;101777.09;5204232;28;20021;-74
2022/10/29 09:16:05;;;;;;;17.52;6.53;;;;;;;18.72;100.00;101775.31;5204017;28;20025;-74
2022/10/29 09:19:31;;;;;;;19.10;6.97;;;;;;;19.14;100.00;101777.09;5203404;28;20064;-74
2022/10/29 09:22:19;;;;;;;25.85;7.38;;;;;;;19.57;100.00;101779.59;5176291;28;20041;-74
2022/10/29 09:24:53;;;;;;;21.45;6.78;;;;;;;19.71;100.00;101773.19;5204000;28;20028;-75
2022/10/29 09:27:37;;;;;;;20.38;6.38;;;;;;;19.90;100.00;101769.69;5202137;28;20025;-74
2022/10/29 09:30:15;;;;;;;11.98;5.63;;;;;;;20.13;100.00;101757.56;5203581;28;20059;-75
2022/10/29 09:33:00;;;;;;;14.95;5.93;;;;;;;20.28;100.00;101751.94;5200933;28;20022;-75
2022/10/29 09:35:44;;;;;;;21.27;6.38;;;;;;;20.46;100.00;101752.16;5192304;28;20033;-75
2022/10/29 09:38:35;;;;;;;14.48;5.75;;;;;;;20.34;100.00;101757.41;5202507;28;20029;-75
2022/10/29 09:41:09;;;;;;;20.65;6.03;;;;;;;20.19;100.00;101762.22;5203180;28;20105;-75
2022/10/29 09:43:55;;;;;;;22.35;6.60;;;;;;;19.93;100.00;101763.00;5202848;28;20556;-75
2022/10/29 09:46:40;;;;;;;17.52;5.38;;;;;;;19.73;100.00;101757.50;5202535;28;20025;-75
2022/10/29 09:49:40;;;;;;;22.30;6.80;;;;;;;19.54;100.00;101755.53;5202298;28;20028;-74
2022/10/29 09:52:22;;;;;;;20.02;6.13;;;;;;;19.38;100.00;101754.00;5202473;28;20024;-75
2022/10/29 09:54:55;;;;;;;13.63;6.05;;;;;;;19.30;100.00;101748.72;5190188;28;20416;-75
2022/10/29 09:57:29;;;;;;;18.17;6.13;;;;;;;19.29;100.00;101760.63;5202245;28;20549;-74
2022/10/29 10:00:17;;;;;;;19.63;5.82;;;;;;;19.53;100.00;101751.09;5203285;28;20029;-75
2022/10/29 10:02:56;;;;;;;17.08;5.22;;;;;;;19.82;100.00;101745.34;5202807;28;20029;-74
2022/10/29 10:05:29;;;;;;;19.50;5.18;;;;;;;20.19;100.00;101754.03;5202484;28;20025;-74
2022/10/29 10:08:10;;;;;;;20.80;6.25;;;;;;;20.43;100.00;101749.84;5202539;28;20337;-75
2022/10/29 10:10:58;;;;;;;13.88;5.20;;;;;;;20.63;100.00;101755.31;5196544;28;20063;-74
2022/10/29 10:13:32;;;;;;;16.90;5.00;;;;;;;20.71;100.00;101755.13;5181559;28;20029;-75
2022/10/29 10:16:04;;;;;;;23.70;5.38;;;;;;;20.83;100.00;101760.75;5183302;28;20515;-75
2022/10/29 10:18:41;;;;;;;24.13;5.93;;;;;;;21.03;100.00;101752.53;5184112;28;20092;-75
2022/10/29 10:21:12;;;;;;;15.88;6.55;;;;;;;21.15;100.00;101761.75;5180366;28;20018;-75
2022/10/29 10:23:46;;;;;;;17.85;5.30;;;;;;;21.24;100.00;101754.19;5182262;28;20113;-75
2022/10/29 10:26:41;;;;;;;20.67;5.93;;;;;;;21.29;100.00;101746.19;5184676;28;20110;-75
2022/10/29 10:29:15;;;;;;;13.60;5.07;;;;;;;21.36;100.00;101749.75;5187180;28;20646;-75
2022/10/29 10:31:48;;;;;;;20.08;4.88;;;;;;;21.21;100.00;101760.88;5184414;28;20363;-75
2022/10/29 10:34:34;;;;;;;17.00;5.20;;;;;;;21.26;100.00;101747.44;5180873;28;20026;-75
2022/10/29 10:37:18;;;;;;;15.88;5.03;;;;;;;21.35;100.00;101750.81;5182050;28;20053;-75
2022/10/29 10:39:55;;;;;;;13.85;5.47;;;;;;;21.52;100.00;101741.06;5181045;28;20057;-75
2022/10/29 10:42:28;;;;;;;19.42;4.88;;;;;;;21.72;100.00;101736.34;5187610;28;20125;-75
2022/10/29 10:45:12;;;;;;;18.30;5.07;;;;;;;21.92;100.00;101736.22;5190344;28;20473;-75
2022/10/29 10:47:49;;;;;;;14.18;4.78;;;;;;;22.14;100.00;101738.63;5195310;28;20033;-75
2022/10/29 10:50:28;;;;;;;18.88;4.88;;;;;;;22.15;100.00;101732.13;5199788;28;20025;-75
2022/10/29 10:53:03;;;;;;;15.68;5.30;;;;;;;22.26;100.00;101734.13;5200669;28;20026;-75
2022/10/29 10:55:37;;;;;;;20.10;5.43;;;;;;;22.38;100.00;101729.59;5202073;28;20440;-75
2022/10/29 10:58:22;;;;;;;17.13;4.97;;;;;;;22.49;100.00;101722.56;5189056;28;20031;-75
2022/10/29 11:00:58;;;;;;;11.13;4.20;;;;;;;22.68;100.00;101720.69;5202710;28;20037;-75
2022/10/29 11:03:46;;;;;;;17.30;4.78;;;;;;;22.79;100.00;101724.59;5202018;28;20025;-75
2022/10/29 11:06:26;;;;;;;20.55;4.90;;;;;;;22.88;100.00;101715.91;5189342;28;20530;-75
2022/10/29 11:09:17;;;;;;;20.65;4.57;;;;;;;22.99;100.00;101715.16;5202221;28;20498;-75
2022/10/29 11:12:23;;;;;;;26.65;5.88;;;;;;;23.16;100.00;101709.91;5202656;28;20366;-75
2022/10/29 11:15:12;;;;;;;21.30;4.72;;;;;;;23.31;100.00;101709.50;5181197;28;20056;-75
2022/10/29 11:17:52;;;;;;;19.08;4.85;;;;;;;23.37;100.00;101710.50;5190718;28;20543;-75
2022/10/29 11:20:30;;;;;;;22.73;6.18;;;;;;;23.36;100.00;101698.72;5188982;28;20140;-75
2022/10/29 11:23:28;;;;;;;15.07;5.30;;;;;;;23.37;100.00;101694.91;5195697;28;20029;-75
2022/10/29 11:26:04;;;;;;;16.80;4.85;;;;;;;23.52;100.00;101698.06;5198292;28;20067;-75
2022/10/29 11:28:45;;;;;;;15.57;4.88;;;;;;;23.60;100.00;101693.34;5205991;28;20025;-75
2022/10/29 11:31:35;;;;;;;16.98;4.70;;;;;;;23.68;100.00;101693.03;5202017;28;20083;-76
2022/10/29 11:34:20;;;;;;;18.95;5.07;;;;;;;23.71;100.00;101695.31;5205998;28;20017;-75
2022/10/29 11:37:07;;;;;;;16.92;4.38;;;;;;;23.80;100.00;101693.06;5205295;28;20417;-75
2022/10/29 11:39:51;;;;;;;19.00;4.90;;;;;;;23.92;100.00;101683.81;5205435;28;20099;-75